Time,TemperatureF,DewpointF,PressureIn,WindDirection,WindDirectionDegrees,WindSpeedMPH,WindSpeedGustMPH,Humidity,HourlyPrecipIn,Conditions,Clouds,dailyrainin,SoftwareType,DateUTC
2013-09-27 00:00:00,60.2,57.0,30.04,SSE,160,0.0,0.0,89,0.00,,,0.00,VWS V14.01,2013-09-27 04:00:00,
2013-09-27 00:01:00,60.2,57.0,30.04,SSE,160,0.0,0.0,89,0.00,,,0.00,VWS V14.01,2013-09-27 04:01:00,
2013-09-27 00:06:00,60.2,57.0,30.05,SE,125,0.0,0.0,89,0.00,,,0.00,VWS V14.01,2013-09-27 04:06:00,
2013-09-27 00:11:00,60.1,56.8,30.05,SE,125,0.0,0.0,89,0.00,,,0.00,VWS V14.01,2013-09-27 04:11:00,
2013-09-27 00:16:00,60.0,56.8,30.05,SE,125,0.0,0.0,89,0.00,,,0.00,VWS V14.01,2013-09-27 04:16:00,
2013-09-27 00:21:00,59.9,56.7,30.05,SE,125,0.0,0.0,89,0.00,,,0.00,VWS V14.01,2013-09-27 04:21:00,
2013-09-27 00:26:00,59.9,56.3,30.05,SE,125,0.0,0.0,88,0.00,,,0.00,VWS V14.01,2013-09-27 04:26:00,
2013-09-27 00:31:00,59.9,56.3,30.05,SE,125,0.0,0.0,88,0.00,,,0.00,VWS V14.01,2013-09-27 04:31:00,
2013-09-27 00:36:00,59.7,56.2,30.05,SE,125,0.0,0.0,88,0.00,,,0.00,VWS V14.01,2013-09-27 04:36:00,
2013-09-27 00:41:00,59.6,56.0,30.05,SE,125,0.0,0.0,88,0.00,,,0.00,VWS V14.01,2013-09-27 04:41:00,
2013-09-27 00:46:00,59.5,56.0,30.05,SE,125,0.0,0.0,88,0.00,,,0.00,VWS V14.01,2013-09-27 04:46:00,
2013-09-27 00:51:00,59.5,56.0,30.05,SE,125,0.0,0.0,88,0.00,,,0.00,VWS V14.01,2013-09-27 04:51:00,
2013-09-27 00:56:00,59.2,55.7,30.05,SE,125,0.0,1.0,88,0.00,,,0.00,VWS V14.01,2013-09-27 04:56:00,
2013-09-27 01:01:00,58.9,55.7,30.05,ESE,108,0.0,2.0,89,0.00,,,0.00,VWS V14.01,2013-09-27 05:01:00,
2013-09-27 01:06:00,58.9,56.0,30.05,ESE,108,0.0,0.0,90,0.00,,,0.00,VWS V14.01,2013-09-27 05:06:00,
2013-09-27 01:11:00,59.0,56.1,30.05,ESE,107,0.0,1.0,90,0.00,,,0.00,VWS V14.01,2013-09-27 05:11:00,
2013-09-27 01:16:00,59.1,56.2,30.05,ESE,108,0.0,0.0,90,0.00,,,0.00,VWS V14.01,2013-09-27 05:16:00,
2013-09-27 01:21:00,59.1,56.2,30.05,SSE,155,2.0,2.0,90,0.00,,,0.00,VWS V14.01,2013-09-27 05:21:00,
2013-09-27 01:26:00,58.9,56.0,30.05,SSE,155,0.0,0.0,90,0.00,,,0.00,VWS V14.01,2013-09-27 05:26:00,
2013-09-27 01:31:00,58.9,56.0,30.05,ESE,122,0.0,1.0,90,0.00,,,0.00,VWS V14.01,2013-09-27 05:31:00,
2013-09-27 01:36:00,58.9,56.0,30.05,ESE,123,0.0,0.0,90,0.00,,,0.00,VWS V14.01,2013-09-27 05:36:00,
2013-09-27 01:41:00,58.8,55.9,30.05,ESE,123,0.0,0.0,90,0.00,,,0.00,VWS V14.01,2013-09-27 05:41:00,
2013-09-27 01:46:00,58.6,55.7,30.05,ESE,123,0.0,0.0,90,0.00,,,0.00,VWS V14.01,2013-09-27 05:46:00,
2013-09-27 01:51:00,58.4,55.5,30.05,ESE,123,0.0,0.0,90,0.00,,,0.00,VWS V14.01,2013-09-27 05:51:00,
2013-09-27 01:56:00,58.5,55.6,30.05,ESE,123,0.0,1.0,90,0.00,,,0.00,VWS V14.01,2013-09-27 05:56:00,
2013-09-27 02:01:00,58.7,56.1,30.05,SE,125,0.0,1.0,91,0.00,,,0.00,VWS V14.01,2013-09-27 06:01:00,
2013-09-27 02:06:00,58.7,56.1,30.06,SE,129,0.0,0.0,91,0.00,,,0.00,VWS V14.01,2013-09-27 06:06:00,
2013-09-27 02:11:00,58.6,56.0,30.06,SE,129,0.0,0.0,91,0.00,,,0.00,VWS V14.01,2013-09-27 06:11:00,
2013-09-27 02:16:00,58.5,55.9,30.06,SE,129,0.0,0.0,91,0.00,,,0.00,VWS V14.01,2013-09-27 06:16:00,
2013-09-27 02:21:00,58.4,55.8,30.06,SE,129,0.0,0.0,91,0.00,,,0.00,VWS V14.01,2013-09-27 06:21:00,
2013-09-27 02:26:00,58.4,55.8,30.06,SE,129,0.0,0.0,91,0.00,,,0.00,VWS V14.01,2013-09-27 06:26:00,
2013-09-27 02:31:00,58.4,55.8,30.06,SE,129,0.0,0.0,91,0.00,,,0.00,VWS V14.01,2013-09-27 06:31:00,
2013-09-27 02:36:00,58.4,55.8,30.06,SE,129,0.0,0.0,91,0.00,,,0.00,VWS V14.01,2013-09-27 06:36:00,
2013-09-27 02:41:00,58.6,56.0,30.06,SE,129,0.0,0.0,91,0.00,,,0.00,VWS V14.01,2013-09-27 06:41:00,
2013-09-27 02:46:00,58.7,56.1,30.06,SE,129,0.0,0.0,91,0.00,,,0.00,VWS V14.01,2013-09-27 06:46:00,
2013-09-27 02:51:00,58.5,55.9,30.06,SE,129,0.0,0.0,91,0.00,,,0.00,VWS V14.01,2013-09-27 06:51:00,
2013-09-27 02:56:00,58.4,55.8,30.05,SE,129,0.0,0.0,91,0.00,,,0.00,VWS V14.01,2013-09-27 06:56:00,
2013-09-27 03:01:00,58.2,55.6,30.06,SE,129,0.0,0.0,91,0.00,,,0.00,VWS V14.01,2013-09-27 07:01:00,
2013-09-27 03:06:00,58.0,55.4,30.06,SE,129,0.0,0.0,91,0.00,,,0.00,VWS V14.01,2013-09-27 07:06:00,
2013-09-27 03:11:00,57.8,55.2,30.05,SE,129,0.0,0.0,91,0.00,,,0.00,VWS V14.01,2013-09-27 07:11:00,
2013-09-27 03:16:00,57.7,55.1,30.05,SE,129,0.0,1.0,91,0.00,,,0.00,VWS V14.01,2013-09-27 07:16:00,
2013-09-27 03:21:00,57.6,55.0,30.05,SE,129,0.0,0.0,91,0.00,,,0.00,VWS V14.01,2013-09-27 07:21:00,
2013-09-27 03:26:00,57.7,55.1,30.05,SE,129,0.0,0.0,91,0.00,,,0.00,VWS V14.01,2013-09-27 07:26:00,
2013-09-27 03:31:00,57.7,55.1,30.05,SE,129,0.0,0.0,91,0.00,,,0.00,VWS V14.01,2013-09-27 07:31:00,
2013-09-27 03:36:00,57.5,54.9,30.05,SE,129,0.0,0.0,91,0.00,,,0.00,VWS V14.01,2013-09-27 07:36:00,
2013-09-27 03:41:00,57.2,54.6,30.05,SE,129,0.0,0.0,91,0.00,,,0.00,VWS V14.01,2013-09-27 07:41:00,
2013-09-27 03:46:00,57.1,54.5,30.05,SE,129,0.0,0.0,91,0.00,,,0.00,VWS V14.01,2013-09-27 07:46:00,
2013-09-27 03:49:00,57.0,54.4,30.05,SE,129,0.0,0.0,91,0.00,,,0.00,VWS V14.01,2013-09-27 07:49:00,
2013-09-27 03:54:00,57.0,54.4,30.05,SE,129,0.0,0.0,91,0.00,,,0.00,VWS V14.01,2013-09-27 07:54:00,
2013-09-27 03:59:00,57.0,54.4,30.05,SE,129,0.0,0.0,91,0.00,,,0.00,VWS V14.01,2013-09-27 07:59:00,
2013-09-27 04:04:00,57.0,54.4,30.06,SE,129,0.0,0.0,91,0.00,,,0.00,VWS V14.01,2013-09-27 08:04:00,
2013-09-27 04:09:00,56.8,54.2,30.05,SE,129,0.0,0.0,91,0.00,,,0.00,VWS V14.01,2013-09-27 08:09:00,
2013-09-27 04:15:00,56.6,54.0,30.06,SE,129,0.0,0.0,91,0.00,,,0.00,VWS V14.01,2013-09-27 08:15:00,
2013-09-27 04:20:00,56.4,53.5,30.06,SE,129,0.0,0.0,90,0.00,,,0.00,VWS V14.01,2013-09-27 08:20:00,
2013-09-27 04:25:00,56.1,53.2,30.06,SE,129,0.0,0.0,90,0.00,,,0.00,VWS V14.01,2013-09-27 08:25:00,
2013-09-27 04:30:00,55.9,53.3,30.06,SE,130,0.0,0.0,91,0.00,,,0.00,VWS V14.01,2013-09-27 08:30:00,
2013-09-27 04:35:00,55.8,53.2,30.06,SE,130,0.0,0.0,91,0.00,,,0.00,VWS V14.01,2013-09-27 08:35:00,
2013-09-27 04:40:00,55.8,53.2,30.06,SE,130,0.0,0.0,91,0.00,,,0.00,VWS V14.01,2013-09-27 08:40:00,
2013-09-27 04:45:00,55.8,53.5,30.07,SE,130,0.0,0.0,92,0.00,,,0.00,VWS V14.01,2013-09-27 08:45:00,
2013-09-27 04:50:00,55.7,53.1,30.07,SE,130,0.0,0.0,91,0.00,,,0.00,VWS V14.01,2013-09-27 08:50:00,
2013-09-27 04:55:00,55.6,53.0,30.07,SE,130,0.0,0.0,91,0.00,,,0.00,VWS V14.01,2013-09-27 08:55:00,
2013-09-27 05:00:00,55.5,53.2,30.07,SE,130,0.0,0.0,92,0.00,,,0.00,VWS V14.01,2013-09-27 09:00:00,
2013-09-27 05:05:00,55.2,52.6,30.07,SE,130,0.0,0.0,91,0.00,,,0.00,VWS V14.01,2013-09-27 09:05:00,
2013-09-27 05:10:00,55.1,52.5,30.07,SE,130,0.0,0.0,91,0.00,,,0.00,VWS V14.01,2013-09-27 09:10:00,
2013-09-27 05:15:00,55.0,52.4,30.07,SE,130,0.0,0.0,91,0.00,,,0.00,VWS V14.01,2013-09-27 09:15:00,
2013-09-27 05:20:00,55.0,52.4,30.07,SE,130,0.0,0.0,91,0.00,,,0.00,VWS V14.01,2013-09-27 09:20:00,
2013-09-27 05:25:00,54.9,52.3,30.07,SE,130,0.0,0.0,91,0.00,,,0.00,VWS V14.01,2013-09-27 09:25:00,
2013-09-27 05:30:00,54.9,52.3,30.07,SE,130,0.0,0.0,91,0.00,,,0.00,VWS V14.01,2013-09-27 09:30:00,
2013-09-27 05:35:00,54.9,52.3,30.07,SE,130,0.0,0.0,91,0.00,,,0.00,VWS V14.01,2013-09-27 09:35:00,
2013-09-27 05:40:00,54.7,52.1,30.07,SE,130,0.0,0.0,91,0.00,,,0.00,VWS V14.01,2013-09-27 09:40:00,
2013-09-27 05:45:00,54.7,52.1,30.07,SE,130,0.0,0.0,91,0.00,,,0.00,VWS V14.01,2013-09-27 09:45:00,
2013-09-27 05:50:00,54.6,52.0,30.07,SE,130,0.0,0.0,91,0.00,,,0.00,VWS V14.01,2013-09-27 09:50:00,
2013-09-27 05:55:00,54.5,51.9,30.07,SE,130,0.0,0.0,91,0.00,,,0.00,VWS V14.01,2013-09-27 09:55:00,
2013-09-27 06:00:00,54.4,51.8,30.08,SE,130,0.0,0.0,91,0.00,,,0.00,VWS V14.01,2013-09-27 10:00:00,
2013-09-27 06:05:00,54.3,51.7,30.08,SE,130,0.0,0.0,91,0.00,,,0.00,VWS V14.01,2013-09-27 10:05:00,
2013-09-27 06:10:00,54.3,51.7,30.08,SE,130,0.0,0.0,91,0.00,,,0.00,VWS V14.01,2013-09-27 10:10:00,
2013-09-27 06:15:00,54.4,51.8,30.08,SE,130,0.0,0.0,91,0.00,,,0.00,VWS V14.01,2013-09-27 10:15:00,
2013-09-27 06:20:00,54.3,51.7,30.08,SE,130,0.0,0.0,91,0.00,,,0.00,VWS V14.01,2013-09-27 10:20:00,
2013-09-27 06:25:00,54.4,51.8,30.09,SE,130,0.0,0.0,91,0.00,,,0.00,VWS V14.01,2013-09-27 10:25:00,
2013-09-27 06:30:00,54.4,51.8,30.09,SE,130,0.0,0.0,91,0.00,,,0.00,VWS V14.01,2013-09-27 10:30:00,
2013-09-27 06:35:00,54.3,51.7,30.09,SE,130,0.0,0.0,91,0.00,,,0.00,VWS V14.01,2013-09-27 10:35:00,
2013-09-27 06:40:00,54.3,51.7,30.09,SE,130,0.0,0.0,91,0.00,,,0.00,VWS V14.01,2013-09-27 10:40:00,
2013-09-27 06:45:00,54.3,51.7,30.10,SE,130,0.0,0.0,91,0.00,,,0.00,VWS V14.01,2013-09-27 10:45:00,
2013-09-27 06:50:00,54.2,51.6,30.09,SE,130,0.0,0.0,91,0.00,,,0.00,VWS V14.01,2013-09-27 10:50:00,
2013-09-27 06:55:00,54.2,51.6,30.10,SE,130,0.0,0.0,91,0.00,,,0.00,VWS V14.01,2013-09-27 10:55:00,
2013-09-27 07:00:00,54.1,51.5,30.10,SE,130,0.0,0.0,91,0.00,,,0.00,VWS V14.01,2013-09-27 11:00:00,
2013-09-27 07:05:00,54.0,51.4,30.10,SE,130,0.0,0.0,91,0.00,,,0.00,VWS V14.01,2013-09-27 11:05:00,
2013-09-27 07:10:00,54.0,51.4,30.10,SE,130,0.0,0.0,91,0.00,,,0.00,VWS V14.01,2013-09-27 11:10:00,
2013-09-27 07:15:00,54.0,51.4,30.11,SE,130,0.0,0.0,91,0.00,,,0.00,VWS V14.01,2013-09-27 11:15:00,
2013-09-27 07:20:00,54.0,51.4,30.11,SE,130,0.0,0.0,91,0.00,,,0.00,VWS V14.01,2013-09-27 11:20:00,
2013-09-27 07:25:00,53.9,51.3,30.11,SE,130,0.0,0.0,91,0.00,,,0.00,VWS V14.01,2013-09-27 11:25:00,
2013-09-27 07:30:00,53.8,51.2,30.11,SE,130,0.0,0.0,91,0.00,,,0.00,VWS V14.01,2013-09-27 11:30:00,
2013-09-27 07:35:00,53.8,51.2,30.12,SE,130,0.0,0.0,91,0.00,,,0.00,VWS V14.01,2013-09-27 11:35:00,
2013-09-27 07:40:00,53.9,51.3,30.12,SE,130,0.0,0.0,91,0.00,,,0.00,VWS V14.01,2013-09-27 11:40:00,
2013-09-27 07:45:00,53.9,51.3,30.12,SE,130,0.0,0.0,91,0.00,,,0.00,VWS V14.01,2013-09-27 11:45:00,
2013-09-27 07:50:00,54.1,51.8,30.13,SE,130,0.0,0.0,92,0.00,,,0.00,VWS V14.01,2013-09-27 11:50:00,
2013-09-27 07:55:00,54.2,51.9,30.13,SE,130,0.0,0.0,92,0.00,,,0.00,VWS V14.01,2013-09-27 11:55:00,
2013-09-27 08:00:00,54.3,52.0,30.13,SE,130,0.0,0.0,92,0.00,,,0.00,VWS V14.01,2013-09-27 12:00:00,
2013-09-27 08:05:00,54.5,52.2,30.13,SE,130,0.0,0.0,92,0.00,,,0.00,VWS V14.01,2013-09-27 12:05:00,
2013-09-27 08:10:00,54.6,52.3,30.13,SE,130,0.0,0.0,92,0.00,,,0.00,VWS V14.01,2013-09-27 12:10:00,
2013-09-27 08:15:00,54.8,52.5,30.13,SE,130,0.0,0.0,92,0.00,,,0.00,VWS V14.01,2013-09-27 12:15:00,
2013-09-27 08:20:00,55.0,52.7,30.14,SE,130,0.0,0.0,92,0.00,,,0.00,VWS V14.01,2013-09-27 12:20:00,
2013-09-27 08:25:00,55.2,52.9,30.14,SE,130,0.0,0.0,92,0.00,,,0.00,VWS V14.01,2013-09-27 12:25:00,
2013-09-27 08:30:00,55.5,53.2,30.14,SE,130,0.0,2.0,92,0.00,,,0.00,VWS V14.01,2013-09-27 12:30:00,
2013-09-27 08:35:00,55.6,53.3,30.14,SE,130,0.0,1.0,92,0.00,,,0.00,VWS V14.01,2013-09-27 12:35:00,
2013-09-27 08:40:00,55.7,53.4,30.15,SE,130,0.0,1.0,92,0.00,,,0.00,VWS V14.01,2013-09-27 12:40:00,
2013-09-27 08:45:00,55.8,53.5,30.15,SE,130,3.0,3.0,92,0.00,,,0.00,VWS V14.01,2013-09-27 12:45:00,
2013-09-27 08:50:00,55.8,53.8,30.15,SE,130,0.0,3.0,93,0.00,,,0.00,VWS V14.01,2013-09-27 12:50:00,
2013-09-27 08:55:00,55.8,53.8,30.15,East,82,0.0,0.0,93,0.00,,,0.00,VWS V14.01,2013-09-27 12:55:00,
2013-09-27 09:00:00,55.9,53.9,30.15,East,82,0.0,0.0,93,0.00,,,0.00,VWS V14.01,2013-09-27 13:00:00,
2013-09-27 09:05:00,56.2,53.9,30.15,East,82,0.0,0.0,92,0.00,,,0.00,VWS V14.01,2013-09-27 13:05:00,
2013-09-27 09:10:00,56.6,54.6,30.15,East,82,0.0,0.0,93,0.00,,,0.00,VWS V14.01,2013-09-27 13:10:00,
2013-09-27 09:15:00,56.9,54.9,30.16,East,82,0.0,0.0,93,0.00,,,0.00,VWS V14.01,2013-09-27 13:15:00,
2013-09-27 09:20:00,57.2,55.2,30.16,East,100,0.0,0.0,93,0.00,,,0.00,VWS V14.01,2013-09-27 13:20:00,
2013-09-27 09:25:00,57.1,55.1,30.16,East,100,0.0,0.0,93,0.00,,,0.00,VWS V14.01,2013-09-27 13:25:00,
2013-09-27 09:30:00,57.8,55.8,30.16,ESE,108,1.0,2.0,93,0.00,,,0.00,VWS V14.01,2013-09-27 13:30:00,
2013-09-27 09:35:00,57.9,55.9,30.16,ESE,108,1.0,2.0,93,0.00,,,0.00,VWS V14.01,2013-09-27 13:35:00,
2013-09-27 09:40:00,58.0,56.0,30.16,ESE,108,0.0,0.0,93,0.00,,,0.00,VWS V14.01,2013-09-27 13:40:00,
2013-09-27 09:45:00,58.6,56.6,30.16,ESE,108,0.0,0.0,93,0.00,,,0.00,VWS V14.01,2013-09-27 13:45:00,
2013-09-27 09:50:00,59.2,57.2,30.16,ESE,108,1.0,1.0,93,0.00,,,0.00,VWS V14.01,2013-09-27 13:50:00,
2013-09-27 09:55:00,59.6,57.6,30.16,ESE,104,0.0,0.0,93,0.00,,,0.00,VWS V14.01,2013-09-27 13:55:00,
2013-09-27 10:00:00,59.9,57.6,30.16,ESE,104,0.0,2.0,92,0.00,,,0.00,VWS V14.01,2013-09-27 14:00:00,
2013-09-27 10:05:00,60.6,58.3,30.16,ESE,104,0.0,1.0,92,0.00,,,0.00,VWS V14.01,2013-09-27 14:05:00,
2013-09-27 10:10:00,61.0,58.7,30.16,ESE,104,0.0,1.0,92,0.00,,,0.00,VWS V14.01,2013-09-27 14:10:00,
2013-09-27 10:15:00,61.5,58.5,30.16,ESE,104,0.0,0.0,90,0.00,,,0.00,VWS V14.01,2013-09-27 14:15:00,
2013-09-27 10:20:00,61.9,58.9,30.17,ESE,103,0.0,0.0,90,0.00,,,0.00,VWS V14.01,2013-09-27 14:20:00,
2013-09-27 10:25:00,62.4,59.1,30.17,WSW,253,2.0,2.0,89,0.00,,,0.00,VWS V14.01,2013-09-27 14:25:00,
2013-09-27 10:30:00,62.8,59.2,30.17,WSW,254,0.0,0.0,88,0.00,,,0.00,VWS V14.01,2013-09-27 14:30:00,
2013-09-27 10:35:00,63.2,59.3,30.17,SSW,213,0.0,1.0,87,0.00,,,0.00,VWS V14.01,2013-09-27 14:35:00,
2013-09-27 10:40:00,63.5,59.2,30.17,SW,216,0.0,0.0,86,0.00,,,0.00,VWS V14.01,2013-09-27 14:40:00,
2013-09-27 10:45:00,63.7,59.1,30.17,SW,224,2.0,2.0,85,0.00,,,0.00,VWS V14.01,2013-09-27 14:45:00,
2013-09-27 10:50:00,64.3,60.0,30.17,SW,224,0.0,0.0,86,0.00,,,0.00,VWS V14.01,2013-09-27 14:50:00,
2013-09-27 10:55:00,65.0,60.7,30.17,SW,224,0.0,0.0,86,0.00,,,0.00,VWS V14.01,2013-09-27 14:55:00,
2013-09-27 11:00:00,65.5,60.5,30.17,SW,224,0.0,0.0,84,0.00,,,0.00,VWS V14.01,2013-09-27 15:00:00,
2013-09-27 11:05:00,65.7,60.4,30.17,SW,224,1.0,1.0,83,0.00,,,0.00,VWS V14.01,2013-09-27 15:05:00,
2013-09-27 11:10:00,66.4,61.1,30.17,SW,224,0.0,0.0,83,0.00,,,0.00,VWS V14.01,2013-09-27 15:10:00,
2013-09-27 11:15:00,66.9,61.6,30.17,North,0,1.0,3.0,83,0.00,,,0.00,VWS V14.01,2013-09-27 15:15:00,
2013-09-27 11:20:00,67.3,61.3,30.17,NNE,32,0.0,0.0,81,0.00,,,0.00,VWS V14.01,2013-09-27 15:20:00,
2013-09-27 11:25:00,67.5,60.8,30.17,ENE,59,2.0,2.0,79,0.00,,,0.00,VWS V14.01,2013-09-27 15:25:00,
2013-09-27 11:30:00,67.6,61.2,30.17,NE,55,0.0,1.0,80,0.00,,,0.00,VWS V14.01,2013-09-27 15:30:00,
2013-09-27 11:35:00,68.0,61.6,30.17,NW,304,1.0,2.0,80,0.00,,,0.00,VWS V14.01,2013-09-27 15:35:00,
2013-09-27 11:40:00,68.3,61.5,30.17,NW,304,0.0,0.0,79,0.00,,,0.00,VWS V14.01,2013-09-27 15:40:00,
2013-09-27 11:45:00,68.6,61.8,30.17,South,185,1.0,2.0,79,0.00,,,0.00,VWS V14.01,2013-09-27 15:45:00,
2013-09-27 11:50:00,69.1,62.0,30.17,South,189,2.0,4.0,78,0.00,,,0.00,VWS V14.01,2013-09-27 15:50:00,
2013-09-27 11:55:00,69.2,61.3,30.17,South,189,0.0,0.0,76,0.00,,,0.00,VWS V14.01,2013-09-27 15:55:00,
2013-09-27 12:00:00,69.4,61.1,30.17,SSW,205,0.0,1.0,75,0.00,,,0.00,VWS V14.01,2013-09-27 16:00:00,
2013-09-27 12:05:00,69.6,61.7,30.17,SW,232,1.0,2.0,76,0.00,,,0.00,VWS V14.01,2013-09-27 16:05:00,
2013-09-27 12:10:00,70.1,62.2,30.17,West,273,2.0,5.0,76,0.00,,,0.00,VWS V14.01,2013-09-27 16:10:00,
2013-09-27 12:15:00,70.4,62.1,30.16,SW,228,0.0,0.0,75,0.00,,,0.00,VWS V14.01,2013-09-27 16:15:00,
2013-09-27 12:20:00,70.8,62.9,30.16,SE,127,1.0,2.0,76,0.00,,,0.00,VWS V14.01,2013-09-27 16:20:00,
2013-09-27 12:25:00,71.2,62.9,30.16,SW,214,3.0,4.0,75,0.00,,,0.00,VWS V14.01,2013-09-27 16:25:00,
2013-09-27 12:30:00,71.5,62.0,30.16,WSW,254,1.0,3.0,72,0.00,,,0.00,VWS V14.01,2013-09-27 16:30:00,
2013-09-27 12:35:00,71.7,62.6,30.16,NNE,13,1.0,1.0,73,0.00,,,0.00,VWS V14.01,2013-09-27 16:35:00,
2013-09-27 12:40:00,71.8,62.7,30.16,SW,229,3.0,3.0,73,0.00,,,0.00,VWS V14.01,2013-09-27 16:40:00,
2013-09-27 12:45:00,72.1,61.8,30.15,SSE,150,0.0,1.0,70,0.00,,,0.00,VWS V14.01,2013-09-27 16:45:00,
2013-09-27 12:50:00,72.1,62.6,30.15,WSW,247,1.0,4.0,72,0.00,,,0.00,VWS V14.01,2013-09-27 16:50:00,
2013-09-27 12:55:00,72.4,62.5,30.15,South,174,2.0,3.0,71,0.00,,,0.00,VWS V14.01,2013-09-27 16:55:00,
2013-09-27 13:00:00,72.7,62.4,30.15,West,274,2.0,4.0,70,0.00,,,0.00,VWS V14.01,2013-09-27 17:00:00,
2013-09-27 13:05:00,73.0,61.4,30.15,North,354,1.0,1.0,67,0.00,,,0.00,VWS V14.01,2013-09-27 17:05:00,
2013-09-27 13:10:00,73.0,62.2,30.15,West,281,3.0,4.0,69,0.00,,,0.00,VWS V14.01,2013-09-27 17:10:00,
2013-09-27 13:15:00,73.0,62.2,30.14,WNW,293,0.0,1.0,69,0.00,,,0.00,VWS V14.01,2013-09-27 17:15:00,
2013-09-27 13:20:00,73.1,61.1,30.14,ENE,70,2.0,2.0,66,0.00,,,0.00,VWS V14.01,2013-09-27 17:20:00,
2013-09-27 13:25:00,73.4,60.5,30.14,North,5,0.0,2.0,64,0.00,,,0.00,VWS V14.01,2013-09-27 17:25:00,
2013-09-27 13:26:00,73.4,60.5,30.14,NNW,327,1.0,1.0,64,0.00,,,0.00,VWS V14.01,2013-09-27 17:26:00,
2013-09-27 13:31:00,73.4,60.5,30.14,NNW,329,0.0,3.0,64,0.00,,,0.00,VWS V14.01,2013-09-27 17:31:00,
2013-09-27 13:36:00,73.5,60.6,30.14,ENE,62,0.0,0.0,64,0.00,,,0.00,VWS V14.01,2013-09-27 17:36:00,
2013-09-27 13:41:00,73.6,60.7,30.13,East,88,0.0,2.0,64,0.00,,,0.00,VWS V14.01,2013-09-27 17:41:00,
2013-09-27 13:46:00,73.6,61.5,30.13,East,94,0.0,1.0,66,0.00,,,0.00,VWS V14.01,2013-09-27 17:46:00,
2013-09-27 13:51:00,73.8,61.3,30.13,NW,314,5.0,5.0,65,0.00,,,0.00,VWS V14.01,2013-09-27 17:51:00,
2013-09-27 13:56:00,73.8,60.4,30.13,NNW,328,0.0,2.0,63,0.00,,,0.00,VWS V14.01,2013-09-27 17:56:00,
2013-09-27 14:01:00,73.7,60.3,30.13,West,276,2.0,4.0,63,0.00,,,0.00,VWS V14.01,2013-09-27 18:01:00,
2013-09-27 14:06:00,73.8,61.3,30.13,ENE,70,0.0,1.0,65,0.00,,,0.00,VWS V14.01,2013-09-27 18:06:00,
2013-09-27 14:11:00,74.1,60.7,30.12,East,91,0.0,0.0,63,0.00,,,0.00,VWS V14.01,2013-09-27 18:11:00,
2013-09-27 14:16:00,74.3,61.8,30.12,NE,56,0.0,2.0,65,0.00,,,0.00,VWS V14.01,2013-09-27 18:16:00,
2013-09-27 14:21:00,74.5,61.1,30.12,NW,314,0.0,5.0,63,0.00,,,0.00,VWS V14.01,2013-09-27 18:21:00,
2013-09-27 14:26:00,74.4,60.5,30.12,NNW,347,0.0,1.0,62,0.00,,,0.00,VWS V14.01,2013-09-27 18:26:00,
2013-09-27 14:31:00,73.9,60.1,30.11,NNE,33,0.0,0.0,62,0.00,,,0.00,VWS V14.01,2013-09-27 18:31:00,
2013-09-27 14:36:00,73.7,60.3,30.11,East,91,0.0,0.0,63,0.00,,,0.00,VWS V14.01,2013-09-27 18:36:00,
2013-09-27 14:41:00,73.4,60.0,30.11,NW,312,1.0,2.0,63,0.00,,,0.00,VWS V14.01,2013-09-27 18:41:00,
2013-09-27 14:46:00,73.2,59.4,30.11,NW,314,0.0,1.0,62,0.00,,,0.00,VWS V14.01,2013-09-27 18:46:00,
2013-09-27 14:51:00,73.0,59.2,30.11,NW,321,0.0,0.0,62,0.00,,,0.00,VWS V14.01,2013-09-27 18:51:00,
2013-09-27 14:56:00,73.2,59.0,30.11,West,270,1.0,3.0,61,0.00,,,0.00,VWS V14.01,2013-09-27 18:56:00,
2013-09-27 15:01:00,73.8,60.0,30.10,WSW,257,0.0,1.0,62,0.00,,,0.00,VWS V14.01,2013-09-27 19:01:00,
2013-09-27 15:06:00,74.3,59.1,30.10,West,266,1.0,3.0,59,0.00,,,0.00,VWS V14.01,2013-09-27 19:06:00,
2013-09-27 15:11:00,74.7,58.5,30.10,NW,305,2.0,2.0,57,0.00,,,0.00,VWS V14.01,2013-09-27 19:11:00,
2013-09-27 15:16:00,75.0,59.2,30.10,North,6,1.0,2.0,58,0.00,,,0.00,VWS V14.01,2013-09-27 19:16:00,
2013-09-27 15:21:00,75.1,58.8,30.10,NNE,23,0.0,3.0,57,0.00,,,0.00,VWS V14.01,2013-09-27 19:21:00,
2013-09-27 15:26:00,75.3,60.0,30.10,NE,49,0.0,2.0,59,0.00,,,0.00,VWS V14.01,2013-09-27 19:26:00,
2013-09-27 15:31:00,75.6,59.8,30.09,SE,142,0.0,0.0,58,0.00,,,0.00,VWS V14.01,2013-09-27 19:31:00,
2013-09-27 15:36:00,75.8,60.9,30.09,ENE,68,0.0,1.0,60,0.00,,,0.00,VWS V14.01,2013-09-27 19:36:00,
2013-09-27 15:41:00,76.0,60.7,30.09,East,80,1.0,4.0,59,0.00,,,0.00,VWS V14.01,2013-09-27 19:41:00,
2013-09-27 15:46:00,75.9,61.0,30.09,East,88,0.0,0.0,60,0.00,,,0.00,VWS V14.01,2013-09-27 19:46:00,
2013-09-27 15:51:00,75.9,60.1,30.09,East,81,0.0,1.0,58,0.00,,,0.00,VWS V14.01,2013-09-27 19:51:00,
2013-09-27 15:56:00,75.9,59.1,30.09,ENE,78,3.0,3.0,56,0.00,,,0.00,VWS V14.01,2013-09-27 19:56:00,
2013-09-27 16:01:00,76.1,60.8,30.09,ENE,72,0.0,0.0,59,0.00,,,0.00,VWS V14.01,2013-09-27 20:01:00,
2013-09-27 16:06:00,76.1,57.8,30.08,SE,126,0.0,1.0,53,0.00,,,0.00,VWS V14.01,2013-09-27 20:06:00,
2013-09-27 16:11:00,76.0,58.2,30.08,North,7,0.0,2.0,54,0.00,,,0.00,VWS V14.01,2013-09-27 20:11:00,
2013-09-27 16:16:00,75.7,58.4,30.08,NE,38,0.0,1.0,55,0.00,,,0.00,VWS V14.01,2013-09-27 20:16:00,
2013-09-27 16:21:00,75.6,59.3,30.08,NNE,14,0.0,3.0,57,0.00,,,0.00,VWS V14.01,2013-09-27 20:21:00,
2013-09-27 16:26:00,75.5,58.7,30.08,NNE,33,0.0,0.0,56,0.00,,,0.00,VWS V14.01,2013-09-27 20:26:00,
2013-09-27 16:31:00,75.5,58.2,30.08,East,80,0.0,1.0,55,0.00,,,0.00,VWS V14.01,2013-09-27 20:31:00,
2013-09-27 16:36:00,75.6,57.8,30.08,ENE,75,3.0,4.0,54,0.00,,,0.00,VWS V14.01,2013-09-27 20:36:00,
2013-09-27 16:41:00,75.8,58.0,30.08,ENE,59,1.0,4.0,54,0.00,,,0.00,VWS V14.01,2013-09-27 20:41:00,
2013-09-27 16:46:00,75.9,58.1,30.08,NE,55,2.0,4.0,54,0.00,,,0.00,VWS V14.01,2013-09-27 20:46:00,
2013-09-27 16:51:00,75.9,57.6,30.08,ENE,76,0.0,3.0,53,0.00,,,0.00,VWS V14.01,2013-09-27 20:51:00,
2013-09-27 16:56:00,75.8,58.0,30.08,East,85,0.0,1.0,54,0.00,,,0.00,VWS V14.01,2013-09-27 20:56:00,
2013-09-27 17:01:00,75.7,56.8,30.08,ENE,77,0.0,1.0,52,0.00,,,0.00,VWS V14.01,2013-09-27 21:01:00,
2013-09-27 17:06:00,75.7,57.4,30.08,ENE,78,0.0,0.0,53,0.00,,,0.00,VWS V14.01,2013-09-27 21:06:00,
2013-09-27 17:11:00,75.6,57.3,30.08,East,81,0.0,1.0,53,0.00,,,0.00,VWS V14.01,2013-09-27 21:11:00,
2013-09-27 17:16:00,75.6,56.2,30.08,East,91,0.0,3.0,51,0.00,,,0.00,VWS V14.01,2013-09-27 21:16:00,
2013-09-27 17:21:00,75.7,56.3,30.08,East,86,0.0,1.0,51,0.00,,,0.00,VWS V14.01,2013-09-27 21:21:00,
2013-09-27 17:26:00,75.6,56.2,30.08,ENE,66,1.0,1.0,51,0.00,,,0.00,VWS V14.01,2013-09-27 21:26:00,
2013-09-27 17:31:00,75.5,55.6,30.08,ENE,70,1.0,4.0,50,0.00,,,0.00,VWS V14.01,2013-09-27 21:31:00,
2013-09-27 17:36:00,75.3,54.8,30.08,NE,44,0.0,1.0,49,0.00,,,0.00,VWS V14.01,2013-09-27 21:36:00,
2013-09-27 17:41:00,75.2,54.2,30.08,ENE,65,0.0,1.0,48,0.00,,,0.00,VWS V14.01,2013-09-27 21:41:00,
2013-09-27 17:46:00,75.2,54.2,30.08,East,83,0.0,1.0,48,0.00,,,0.00,VWS V14.01,2013-09-27 21:46:00,
2013-09-27 17:51:00,75.1,54.1,30.08,East,85,0.0,0.0,48,0.00,,,0.00,VWS V14.01,2013-09-27 21:51:00,
2013-09-27 17:56:00,75.0,55.1,30.08,East,81,1.0,1.0,50,0.00,,,0.00,VWS V14.01,2013-09-27 21:56:00,
2013-09-27 18:01:00,74.9,54.5,30.08,East,89,2.0,2.0,49,0.00,,,0.00,VWS V14.01,2013-09-27 22:01:00,
2013-09-27 18:06:00,75.0,56.2,30.08,East,98,1.0,2.0,52,0.00,,,0.00,VWS V14.01,2013-09-27 22:06:00,
2013-09-27 18:11:00,74.9,56.1,30.08,ENE,76,2.0,2.0,52,0.00,,,0.00,VWS V14.01,2013-09-27 22:11:00,
2013-09-27 18:16:00,74.8,56.0,30.08,East,87,0.0,0.0,52,0.00,,,0.00,VWS V14.01,2013-09-27 22:16:00,
2013-09-27 18:21:00,74.7,57.0,30.08,ESE,103,0.0,0.0,54,0.00,,,0.00,VWS V14.01,2013-09-27 22:21:00,
2013-09-27 18:26:00,74.6,56.9,30.08,East,100,1.0,2.0,54,0.00,,,0.00,VWS V14.01,2013-09-27 22:26:00,
2013-09-27 18:31:00,74.5,57.3,30.08,East,96,0.0,2.0,55,0.00,,,0.00,VWS V14.01,2013-09-27 22:31:00,
2013-09-27 18:36:00,74.4,57.7,30.08,East,84,0.0,1.0,56,0.00,,,0.00,VWS V14.01,2013-09-27 22:36:00,
2013-09-27 18:41:00,74.2,57.0,30.08,East,87,2.0,2.0,55,0.00,,,0.00,VWS V14.01,2013-09-27 22:41:00,
2013-09-27 18:46:00,74.1,56.9,30.08,East,87,1.0,1.0,55,0.00,,,0.00,VWS V14.01,2013-09-27 22:46:00,
2013-09-27 18:51:00,74.0,56.8,30.08,East,86,1.0,2.0,55,0.00,,,0.00,VWS V14.01,2013-09-27 22:51:00,
2013-09-27 18:56:00,73.9,56.7,30.08,East,88,0.0,1.0,55,0.00,,,0.00,VWS V14.01,2013-09-27 22:56:00,
2013-09-27 19:01:00,73.7,56.5,30.08,East,88,0.0,0.0,55,0.00,,,0.00,VWS V14.01,2013-09-27 23:01:00,
2013-09-27 19:06:00,73.5,56.4,30.08,East,88,0.0,0.0,55,0.00,,,0.00,VWS V14.01,2013-09-27 23:06:00,
2013-09-27 19:11:00,73.4,57.3,30.08,East,88,0.0,0.0,57,0.00,,,0.00,VWS V14.01,2013-09-27 23:11:00,
2013-09-27 19:16:00,73.1,57.9,30.08,East,88,0.0,0.0,59,0.00,,,0.00,VWS V14.01,2013-09-27 23:16:00,
2013-09-27 19:21:00,72.6,58.4,30.08,East,88,0.0,0.0,61,0.00,,,0.00,VWS V14.01,2013-09-27 23:21:00,
2013-09-27 19:26:00,72.2,58.5,30.08,East,88,0.0,0.0,62,0.00,,,0.00,VWS V14.01,2013-09-27 23:26:00,
2013-09-27 19:31:00,71.5,58.3,30.08,East,88,0.0,0.0,63,0.00,,,0.00,VWS V14.01,2013-09-27 23:31:00,
2013-09-27 19:36:00,70.9,58.1,30.08,East,88,0.0,0.0,64,0.00,,,0.00,VWS V14.01,2013-09-27 23:36:00,
2013-09-27 19:41:00,70.5,58.2,30.08,East,88,0.0,0.0,65,0.00,,,0.00,VWS V14.01,2013-09-27 23:41:00,
2013-09-27 19:46:00,70.1,58.7,30.09,East,88,0.0,0.0,67,0.00,,,0.00,VWS V14.01,2013-09-27 23:46:00,
2013-09-27 19:51:00,69.6,58.6,30.09,East,88,0.0,0.0,68,0.00,,,0.00,VWS V14.01,2013-09-27 23:51:00,
2013-09-27 19:56:00,69.2,58.2,30.08,East,88,0.0,0.0,68,0.00,,,0.00,VWS V14.01,2013-09-27 23:56:00,
2013-09-27 20:01:00,68.8,58.6,30.09,East,90,0.0,0.0,70,0.00,,,0.00,VWS V14.01,2013-09-28 00:01:00,
2013-09-27 20:06:00,68.4,58.2,30.09,East,90,0.0,0.0,70,0.00,,,0.00,VWS V14.01,2013-09-28 00:06:00,
2013-09-27 20:11:00,68.0,58.7,30.09,East,93,0.0,0.0,72,0.00,,,0.00,VWS V14.01,2013-09-28 00:11:00,
2013-09-27 20:16:00,67.3,58.4,30.09,East,93,0.0,0.0,73,0.00,,,0.00,VWS V14.01,2013-09-28 00:16:00,
2013-09-27 20:21:00,66.6,58.1,30.09,East,93,0.0,0.0,74,0.00,,,0.00,VWS V14.01,2013-09-28 00:21:00,
2013-09-27 20:26:00,65.8,58.0,30.09,ESE,114,0.0,0.0,76,0.00,,,0.00,VWS V14.01,2013-09-28 00:26:00,
2013-09-27 20:31:00,65.3,57.9,30.09,ESE,114,0.0,0.0,77,0.00,,,0.00,VWS V14.01,2013-09-28 00:31:00,
2013-09-27 20:36:00,64.9,57.9,30.09,ESE,116,0.0,0.0,78,0.00,,,0.00,VWS V14.01,2013-09-28 00:36:00,
2013-09-27 20:41:00,64.7,57.7,30.10,ESE,116,0.0,0.0,78,0.00,,,0.00,VWS V14.01,2013-09-28 00:41:00,
2013-09-27 20:46:00,64.5,57.8,30.10,ESE,116,0.0,0.0,79,0.00,,,0.00,VWS V14.01,2013-09-28 00:46:00,
2013-09-27 20:51:00,64.3,58.0,30.10,ESE,116,0.0,0.0,80,0.00,,,0.00,VWS V14.01,2013-09-28 00:51:00,
2013-09-27 20:56:00,64.1,57.8,30.10,ESE,116,0.0,0.0,80,0.00,,,0.00,VWS V14.01,2013-09-28 00:56:00,
2013-09-27 21:01:00,63.8,57.9,30.10,ESE,114,0.0,1.0,81,0.00,,,0.00,VWS V14.01,2013-09-28 01:01:00,
2013-09-27 21:06:00,63.5,57.9,30.10,ESE,114,0.0,0.0,82,0.00,,,0.00,VWS V14.01,2013-09-28 01:06:00,
2013-09-27 21:11:00,63.2,58.0,30.10,ESE,114,0.0,1.0,83,0.00,,,0.00,VWS V14.01,2013-09-28 01:11:00,
2013-09-27 21:16:00,63.0,57.8,30.11,ESE,115,0.0,0.0,83,0.00,,,0.00,VWS V14.01,2013-09-28 01:16:00,
2013-09-27 21:21:00,62.9,57.7,30.11,ESE,115,0.0,0.0,83,0.00,,,0.00,VWS V14.01,2013-09-28 01:21:00,
2013-09-27 21:26:00,62.6,57.4,30.11,ESE,115,0.0,0.0,83,0.00,,,0.00,VWS V14.01,2013-09-28 01:26:00,
2013-09-27 21:31:00,62.5,57.3,30.11,ESE,115,0.0,0.0,83,0.00,,,0.00,VWS V14.01,2013-09-28 01:31:00,
2013-09-27 21:36:00,62.3,57.1,30.11,ESE,115,0.0,0.0,83,0.00,,,0.00,VWS V14.01,2013-09-28 01:36:00,
2013-09-27 21:41:00,62.1,57.2,30.11,ESE,115,0.0,0.0,84,0.00,,,0.00,VWS V14.01,2013-09-28 01:41:00,
2013-09-27 21:46:00,62.0,57.1,30.12,ESE,115,0.0,0.0,84,0.00,,,0.00,VWS V14.01,2013-09-28 01:46:00,
2013-09-27 21:51:00,61.9,57.0,30.12,ESE,115,0.0,0.0,84,0.00,,,0.00,VWS V14.01,2013-09-28 01:51:00,
2013-09-27 21:56:00,61.8,57.2,30.12,ESE,115,0.0,0.0,85,0.00,,,0.00,VWS V14.01,2013-09-28 01:56:00,
2013-09-27 22:01:00,61.8,57.2,30.12,ESE,114,0.0,1.0,85,0.00,,,0.00,VWS V14.01,2013-09-28 02:01:00,
2013-09-27 22:06:00,61.7,57.2,30.12,ESE,114,0.0,0.0,85,0.00,,,0.00,VWS V14.01,2013-09-28 02:06:00,
2013-09-27 22:11:00,61.7,57.5,30.12,ESE,114,0.0,0.0,86,0.00,,,0.00,VWS V14.01,2013-09-28 02:11:00,
2013-09-27 22:16:00,61.5,57.3,30.12,ESE,114,0.0,0.0,86,0.00,,,0.00,VWS V14.01,2013-09-28 02:16:00,
2013-09-27 22:21:00,61.3,57.1,30.12,ESE,118,0.0,0.0,86,0.00,,,0.00,VWS V14.01,2013-09-28 02:21:00,
2013-09-27 22:26:00,61.1,56.6,30.12,ESE,118,0.0,0.0,85,0.00,,,0.00,VWS V14.01,2013-09-28 02:26:00,
2013-09-27 22:31:00,61.0,56.8,30.12,ESE,118,0.0,0.0,86,0.00,,,0.00,VWS V14.01,2013-09-28 02:31:00,
2013-09-27 22:36:00,60.8,56.6,30.12,ESE,118,0.0,0.0,86,0.00,,,0.00,VWS V14.01,2013-09-28 02:36:00,
2013-09-27 22:41:00,60.7,56.5,30.12,ESE,120,0.0,0.0,86,0.00,,,0.00,VWS V14.01,2013-09-28 02:41:00,
2013-09-27 22:46:00,60.6,56.4,30.12,ESE,120,0.0,0.0,86,0.00,,,0.00,VWS V14.01,2013-09-28 02:46:00,
2013-09-27 22:51:00,60.5,56.3,30.12,ESE,120,0.0,0.0,86,0.00,,,0.00,VWS V14.01,2013-09-28 02:51:00,
2013-09-27 22:56:00,60.4,56.2,30.12,ESE,120,0.0,0.0,86,0.00,,,0.00,VWS V14.01,2013-09-28 02:56:00,
2013-09-27 23:01:00,60.4,56.5,30.12,ESE,120,0.0,0.0,87,0.00,,,0.00,VWS V14.01,2013-09-28 03:01:00,
2013-09-27 23:06:00,60.3,56.4,30.12,ESE,121,0.0,0.0,87,0.00,,,0.00,VWS V14.01,2013-09-28 03:06:00,
2013-09-27 23:11:00,60.2,56.3,30.12,ESE,121,0.0,0.0,87,0.00,,,0.00,VWS V14.01,2013-09-28 03:11:00,
2013-09-27 23:16:00,60.2,56.3,30.13,ESE,121,0.0,0.0,87,0.00,,,0.00,VWS V14.01,2013-09-28 03:16:00,
2013-09-27 23:21:00,60.2,56.3,30.13,ESE,121,0.0,0.0,87,0.00,,,0.00,VWS V14.01,2013-09-28 03:21:00,
2013-09-27 23:26:00,60.1,56.2,30.13,ESE,121,0.0,0.0,87,0.00,,,0.00,VWS V14.01,2013-09-28 03:26:00,
2013-09-27 23:31:00,60.1,56.2,30.13,ESE,121,0.0,0.0,87,0.00,,,0.00,VWS V14.01,2013-09-28 03:31:00,
2013-09-27 23:36:00,60.0,55.8,30.12,ESE,121,0.0,0.0,86,0.00,,,0.00,VWS V14.01,2013-09-28 03:36:00,
2013-09-27 23:41:00,60.0,56.1,30.13,ESE,121,0.0,0.0,87,0.00,,,0.00,VWS V14.01,2013-09-28 03:41:00,
2013-09-27 23:46:00,60.0,56.1,30.13,ESE,121,0.0,0.0,87,0.00,,,0.00,VWS V14.01,2013-09-28 03:46:00,
2013-09-27 23:51:00,59.9,56.0,30.13,ESE,121,0.0,0.0,87,0.00,,,0.00,VWS V14.01,2013-09-28 03:51:00,
2013-09-27 23:56:00,59.9,56.0,30.13,ESE,121,0.0,0.0,87,0.00,,,0.00,VWS V14.01,2013-09-28 03:56:00,